Lewisville's Hourly Summary for Saturday, May 12, 2018
Hour Temp
(f)
RH
(%)
Solar Rad.
(MJ/m2)
Rainfall
(in)
Wind
(mph)
5/12/2018 12:00 AM 78 54 0 0 13.11
5/12/2018 1:00 AM 76 59 0 0 13.62
5/12/2018 2:00 AM 74 65 0 0 11.69
5/12/2018 3:00 AM 73 72 0 0 9.69
5/12/2018 4:00 AM 73 75 0 0 11.75
5/12/2018 5:00 AM 73 76 0 0 9.02
5/12/2018 6:00 AM 73 77 0.02 0 8.99
5/12/2018 7:00 AM 73 79 0.25 0 9.6
5/12/2018 8:00 AM 74 75 0.5 0 10.17
5/12/2018 9:00 AM 76 64 1.63 0 11.66
5/12/2018 10:00 AM 78 58 1.83 0 12.49
5/12/2018 11:00 AM 82 50 2.69 0 11.49
5/12/2018 12:00 PM 83 45 3.05 0 11.64
5/12/2018 1:00 PM 85 41 3.11 0 11.26
5/12/2018 2:00 PM 86 39 3.03 0 10.47
5/12/2018 3:00 PM 87 38 2.72 0 10.56
5/12/2018 4:00 PM 88 38 2.37 0 10.19
5/12/2018 5:00 PM 87 37 1.67 0 10.3
5/12/2018 6:00 PM 87 39 0.96 0 9.77
5/12/2018 7:00 PM 85 42 0.33 0 9.92
5/12/2018 8:00 PM 83 46 0.01 0 7.71
5/12/2018 9:00 PM 81 51 0 0 4
5/12/2018 10:00 PM 79 56 0 0 3.88
5/12/2018 11:00 PM 79 59 0 0 7.77
Data Summary 79 55 24.17 0.00 10.03